createdAt,value
2022-12-01T00:01:16.582Z,35.67
2022-12-01T00:03:43.297Z,39.05
2022-12-01T00:06:11.253Z,37.65
2022-12-01T00:08:38.132Z,39.65
2022-12-01T00:11:09.160Z,34.88
2022-12-01T00:13:35.641Z,36.80
2022-12-01T00:16:12.332Z,38.22
2022-12-01T00:18:38.840Z,39.67
2022-12-01T00:21:05.351Z,35.92
2022-12-01T00:23:31.942Z,42.90
2022-12-01T00:26:05.306Z,37.42
2022-12-01T00:28:31.916Z,37.35
2022-12-01T00:30:58.453Z,44.38
2022-12-01T00:33:24.861Z,38.58
2022-12-01T00:35:57.382Z,38.50
2022-12-01T00:38:23.847Z,40.53
2022-12-01T00:40:50.251Z,42.95
2022-12-01T00:43:16.680Z,41.67
2022-12-01T00:45:43.321Z,38.45
2022-12-01T00:48:10.009Z,38.05
2022-12-01T00:50:36.481Z,38.53
2022-12-01T00:53:02.907Z,38.92
2022-12-01T00:55:29.313Z,39.42
2022-12-01T00:57:55.710Z,39.97
2022-12-01T01:00:22.271Z,41.95
2022-12-01T01:02:48.799Z,41.22
2022-12-01T01:05:15.327Z,40.60
2022-12-01T01:07:41.733Z,40.25
2022-12-01T01:10:08.305Z,41.45
2022-12-01T01:12:34.747Z,39.42
2022-12-01T01:15:05.236Z,43.40
2022-12-01T01:17:32.789Z,36.75
2022-12-01T01:19:59.198Z,41.13
2022-12-01T01:22:25.600Z,46.22
2022-12-01T01:24:52.007Z,41.58
2022-12-01T01:27:18.477Z,40.75
2022-12-01T01:29:44.875Z,47.28
2022-12-01T01:32:11.336Z,46.60
2022-12-01T01:34:37.791Z,41.83
2022-12-01T01:37:04.199Z,42.38
2022-12-01T01:39:30.619Z,43.15
2022-12-01T01:41:57.012Z,40.60
2022-12-01T01:44:42.215Z,48.58
2022-12-01T01:47:08.641Z,41.53
2022-12-01T01:49:35.171Z,43.10
2022-12-01T01:52:04.328Z,45.08
2022-12-01T01:54:35.761Z,44.05
2022-12-01T01:57:03.426Z,50.58
2022-12-01T01:59:31.651Z,46.72
2022-12-01T02:02:10.298Z,45.53
2022-12-01T02:04:41.764Z,48.30
2022-12-01T02:07:08.815Z,45.33
2022-12-01T02:09:36.280Z,51.63
2022-12-01T02:12:11.352Z,49.30
2022-12-01T02:14:53.118Z,43.22
2022-12-01T02:17:28.693Z,48.05
2022-12-01T02:20:03.378Z,48.10
2022-12-01T02:22:37.289Z,48.75
2022-12-01T02:25:12.115Z,51.17
2022-12-01T02:27:50.784Z,48.92
2022-12-01T02:30:18.194Z,59.63
2022-12-01T02:33:07.992Z,53.00
2022-12-01T02:35:41.168Z,49.53
2022-12-01T02:38:07.730Z,51.30
2022-12-01T02:40:39.572Z,56.50
2022-12-01T02:43:06.131Z,55.28
2022-12-01T02:45:37.144Z,53.03
2022-12-01T02:48:05.497Z,54.65
2022-12-01T02:50:33.922Z,51.70
2022-12-01T02:53:01.249Z,59.25
2022-12-01T02:55:27.653Z,53.85
2022-12-01T02:57:54.116Z,55.17
2022-12-01T03:00:20.700Z,54.42
2022-12-01T03:02:53.278Z,52.92
2022-12-01T03:05:34.473Z,58.05
2022-12-01T03:08:20.015Z,54.67
2022-12-01T03:10:54.632Z,52.42
2022-12-01T03:13:21.058Z,55.47
2022-12-01T03:15:53.560Z,57.75
2022-12-01T03:18:19.933Z,53.45
2022-12-01T03:20:48.598Z,48.50
2022-12-01T03:23:16.442Z,54.85
2022-12-01T03:25:44.630Z,56.00
2022-12-01T03:28:21.113Z,51.00
2022-12-01T03:30:50.158Z,51.97
2022-12-01T03:33:20.336Z,44.72
2022-12-01T03:35:59.756Z,47.55
2022-12-01T03:38:27.273Z,51.13
2022-12-01T03:41:02.147Z,53.13
2022-12-01T03:43:32.837Z,47.72
2022-12-01T03:46:02.957Z,48.55
2022-12-01T03:48:29.904Z,53.42
2022-12-01T03:51:02.529Z,56.50
2022-12-01T03:53:33.117Z,56.65
2022-12-01T03:56:02.380Z,55.70
2022-12-01T03:58:34.209Z,51.97
2022-12-01T04:01:04.177Z,53.30
2022-12-01T04:03:33.438Z,53.30
2022-12-01T04:05:59.949Z,50.50
2022-12-01T04:08:26.494Z,53.22
2022-12-01T04:10:52.877Z,55.90
2022-12-01T04:13:23.260Z,53.00
2022-12-01T04:15:53.627Z,52.63
2022-12-01T04:18:20.606Z,49.78
2022-12-01T04:20:47.672Z,51.72
2022-12-01T04:23:34.078Z,56.20
2022-12-01T04:26:01.641Z,56.30
2022-12-01T04:28:28.140Z,59.42
2022-12-01T04:30:54.559Z,60.35
2022-12-01T04:33:21.326Z,52.78
2022-12-01T04:35:56.221Z,57.13
2022-12-01T04:38:27.394Z,55.53
2022-12-01T04:40:56.572Z,58.15
2022-12-01T04:43:22.980Z,57.08
2022-12-01T04:45:49.360Z,53.90
2022-12-01T04:48:15.769Z,53.03
2022-12-01T04:50:42.178Z,57.28
2022-12-01T04:53:08.570Z,54.20
2022-12-01T04:55:41.368Z,54.78
2022-12-01T04:58:08.021Z,56.53
2022-12-01T05:00:34.430Z,53.33
2022-12-01T05:03:00.877Z,55.63
2022-12-01T05:05:27.644Z,54.25
2022-12-01T05:07:54.217Z,58.63
2022-12-01T05:10:20.738Z,54.00
2022-12-01T05:12:47.286Z,58.03
2022-12-01T05:15:13.722Z,53.97
2022-12-01T05:17:40.176Z,52.83
2022-12-01T05:20:25.810Z,54.88
2022-12-01T05:23:05.353Z,51.55
2022-12-01T05:25:32.624Z,52.03
2022-12-01T05:27:59.186Z,52.72
2022-12-01T05:30:28.532Z,51.95
2022-12-01T05:32:55.489Z,56.72
2022-12-01T05:35:21.952Z,53.65
2022-12-01T05:37:48.372Z,50.97
2022-12-01T05:40:14.806Z,51.42
2022-12-01T05:42:41.206Z,51.83
2022-12-01T05:45:07.870Z,49.28
2022-12-01T05:47:34.319Z,51.60
2022-12-01T05:50:05.143Z,48.67
2022-12-01T05:52:33.273Z,49.85
2022-12-01T05:54:59.680Z,48.22
2022-12-01T05:57:26.127Z,49.22
2022-12-01T05:59:52.532Z,52.38
2022-12-01T06:02:18.984Z,45.92
2022-12-01T06:04:45.528Z,47.65
2022-12-01T06:07:11.947Z,48.00
2022-12-01T06:09:38.511Z,46.42
2022-12-01T06:12:05.006Z,46.05
2022-12-01T06:14:31.654Z,46.63
2022-12-01T06:16:58.056Z,51.30
2022-12-01T06:19:24.637Z,47.72
2022-12-01T06:21:50.983Z,49.95
2022-12-01T06:24:17.407Z,49.92
2022-12-01T06:26:43.803Z,46.03
2022-12-01T06:29:10.799Z,47.58
2022-12-01T06:31:37.230Z,49.47
2022-12-01T06:34:03.675Z,50.13
2022-12-01T06:36:30.172Z,52.13
2022-12-01T06:38:56.619Z,52.90
2022-12-01T06:41:23.024Z,45.83
2022-12-01T06:43:49.454Z,49.55
2022-12-01T06:46:15.947Z,50.25
2022-12-01T06:48:42.440Z,47.28
2022-12-01T06:51:10.931Z,54.45
2022-12-01T06:53:37.521Z,56.00
2022-12-01T06:56:04.890Z,49.95
2022-12-01T06:58:31.968Z,48.45
2022-12-01T07:00:59.276Z,51.72
2022-12-01T07:03:25.999Z,52.22
2022-12-01T07:05:59.456Z,55.78
2022-12-01T07:08:26.549Z,55.45
2022-12-01T07:10:59.740Z,52.80
2022-12-01T07:13:31.527Z,56.08
2022-12-01T07:18:26.157Z,55.78
2022-12-01T07:20:52.570Z,55.15
2022-12-01T07:23:19.032Z,56.50
2022-12-01T07:25:45.570Z,53.03
2022-12-01T07:28:12.177Z,57.17
2022-12-01T07:30:39.066Z,59.83
2022-12-01T07:33:05.504Z,56.65
2022-12-01T07:35:31.921Z,60.53
2022-12-01T07:37:58.372Z,59.67
2022-12-01T07:40:24.865Z,57.40
2022-12-01T07:42:51.271Z,55.88
2022-12-01T07:45:17.713Z,59.63
2022-12-01T07:47:44.645Z,59.92
2022-12-01T07:50:11.266Z,60.72
2022-12-01T07:52:37.670Z,56.72
2022-12-01T07:55:04.225Z,57.75
2022-12-01T07:57:30.637Z,65.95
2022-12-01T07:59:57.139Z,58.80
2022-12-01T08:02:23.644Z,60.45
2022-12-01T08:04:50.171Z,64.05
2022-12-01T08:07:18.728Z,58.83
2022-12-01T08:09:45.786Z,60.50
2022-12-01T08:12:12.273Z,62.03
2022-12-01T08:14:38.663Z,58.15
2022-12-01T08:17:05.099Z,59.33
2022-12-01T08:19:31.540Z,60.05
2022-12-01T08:21:57.969Z,61.78
2022-12-01T08:24:24.665Z,60.72
2022-12-01T08:26:51.073Z,60.03
2022-12-01T08:29:20.436Z,56.85
2022-12-01T08:31:47.187Z,54.42
2022-12-01T08:34:13.672Z,61.25
2022-12-01T08:36:40.143Z,56.40
2022-12-01T08:39:07.720Z,63.83
2022-12-01T08:41:34.402Z,56.30
2022-12-01T08:44:01.433Z,57.40
2022-12-01T08:46:29.202Z,54.03
2022-12-01T08:48:57.310Z,56.25
2022-12-01T08:51:24.286Z,62.83
2022-12-01T08:53:50.677Z,61.15
2022-12-01T08:56:19.210Z,56.38
2022-12-01T08:58:45.933Z,58.00
2022-12-01T09:01:13.739Z,61.08
2022-12-01T09:03:40.565Z,60.63
2022-12-01T09:06:08.376Z,55.25
2022-12-01T09:08:35.867Z,58.20
2022-12-01T09:11:04.188Z,57.60
2022-12-01T09:13:31.272Z,58.72
2022-12-01T09:16:02.370Z,66.43
2022-12-01T09:18:28.837Z,58.65
2022-12-01T09:20:55.746Z,57.55
2022-12-01T09:23:22.425Z,55.70
2022-12-01T09:25:49.661Z,58.90
2022-12-01T09:28:16.163Z,55.90
2022-12-01T09:30:42.590Z,57.22
2022-12-01T09:33:08.992Z,61.63
2022-12-01T09:35:35.427Z,60.58
2022-12-01T09:38:01.842Z,53.65
2022-12-01T09:40:31.478Z,51.42
2022-12-01T09:43:00.306Z,58.63
2022-12-01T09:45:34.005Z,55.60
2022-12-01T09:50:28.473Z,51.05
2022-12-01T09:52:57.703Z,48.38
2022-12-01T09:55:24.932Z,47.28
2022-12-01T09:57:56.847Z,53.80
2022-12-01T10:00:24.841Z,53.22
2022-12-01T10:02:54.215Z,57.58
2022-12-01T10:05:22.071Z,56.15
2022-12-01T10:07:50.587Z,54.33
2022-12-01T10:10:24.713Z,51.47
2022-12-01T10:12:51.121Z,54.50
2022-12-01T10:15:20.574Z,55.03
2022-12-01T10:17:49.936Z,49.58
2022-12-01T10:20:24.933Z,48.33
2022-12-01T10:23:06.784Z,53.40
2022-12-01T10:25:51.515Z,48.45
2022-12-01T10:28:17.964Z,51.15
2022-12-01T10:30:49.259Z,48.53
2022-12-01T10:33:21.894Z,58.85
2022-12-01T10:35:48.284Z,52.07
2022-12-01T10:38:21.221Z,55.55
2022-12-01T10:40:50.767Z,52.25
2022-12-01T10:43:17.165Z,48.30
2022-12-01T10:45:44.631Z,54.17
2022-12-01T10:48:11.188Z,48.03
2022-12-01T10:50:37.743Z,51.38
2022-12-01T10:53:04.518Z,52.67
2022-12-01T10:55:34.702Z,53.30
2022-12-01T10:58:09.080Z,48.92
2022-12-01T11:03:25.998Z,50.58
2022-12-01T11:05:54.688Z,49.92
2022-12-01T11:08:56.577Z,43.70
2022-12-01T11:11:34.232Z,46.33
2022-12-01T11:14:02.743Z,49.15
2022-12-01T11:16:55.287Z,50.22
2022-12-01T11:19:26.921Z,48.38
2022-12-01T11:21:55.474Z,46.30
2022-12-01T11:24:24.852Z,47.92
2022-12-01T11:26:51.332Z,50.47
2022-12-01T11:29:37.433Z,45.83
2022-12-01T11:32:14.093Z,46.20
2022-12-01T11:34:40.728Z,47.47
2022-12-01T11:37:08.719Z,48.35
2022-12-01T11:39:37.160Z,45.53
2022-12-01T11:42:22.535Z,48.30
2022-12-01T11:44:55.039Z,47.00
2022-12-01T11:47:26.087Z,48.05
2022-12-01T11:49:54.584Z,51.15
2022-12-01T11:52:29.995Z,45.88
2022-12-01T11:54:58.550Z,45.22
2022-12-01T11:57:34.305Z,42.80
2022-12-01T12:00:01.437Z,42.85
2022-12-01T12:02:27.959Z,44.30
2022-12-01T12:05:09.704Z,45.40
2022-12-01T12:07:49.759Z,43.42
2022-12-01T12:10:28.527Z,43.58
2022-12-01T12:13:05.389Z,50.95
2022-12-01T12:15:31.777Z,43.55
2022-12-01T12:18:16.788Z,47.47
2022-12-01T12:20:49.118Z,42.53
2022-12-01T12:23:37.708Z,45.13
2022-12-01T12:26:09.899Z,45.58
2022-12-01T12:28:36.520Z,45.30
2022-12-01T12:31:05.760Z,48.30
2022-12-01T12:33:38.442Z,46.42
2022-12-01T12:36:11.118Z,43.73
2022-12-01T12:38:46.901Z,41.77
2022-12-01T12:41:19.465Z,49.90
2022-12-01T12:43:50.200Z,40.58
2022-12-01T12:46:29.912Z,45.08
2022-12-01T12:49:18.750Z,42.67
2022-12-01T12:51:45.866Z,40.92
2022-12-01T12:54:12.390Z,39.17
2022-12-01T12:56:40.614Z,43.40
2022-12-01T12:59:13.838Z,38.72
2022-12-01T13:01:42.913Z,42.40
2022-12-01T13:04:12.470Z,39.60
2022-12-01T13:06:41.954Z,42.55
2022-12-01T13:09:11.344Z,43.92
2022-12-01T13:11:53.994Z,43.25
2022-12-01T13:14:24.702Z,36.80
2022-12-01T13:16:53.647Z,42.83
2022-12-01T13:19:30.869Z,47.80
2022-12-01T13:21:58.312Z,44.15
2022-12-01T13:24:27.582Z,44.58
2022-12-01T13:27:01.867Z,38.92
2022-12-01T13:29:29.465Z,41.97
2022-12-01T13:31:56.066Z,41.80
2022-12-01T13:34:29.930Z,46.05
2022-12-01T13:36:56.658Z,42.92
2022-12-01T13:39:35.528Z,42.72
2022-12-01T13:42:09.145Z,44.25
2022-12-01T13:47:24.935Z,42.65
2022-12-01T13:49:52.371Z,42.03
2022-12-01T13:52:22.096Z,41.13
2022-12-01T13:55:13.410Z,45.35
2022-12-01T13:57:44.975Z,43.47
2022-12-01T14:00:21.449Z,44.15
2022-12-01T14:03:07.921Z,47.00
2022-12-01T14:05:40.406Z,43.35
2022-12-01T14:08:21.402Z,45.35
2022-12-01T14:11:00.530Z,40.63
2022-12-01T14:13:28.013Z,48.00
2022-12-01T14:15:56.447Z,38.00
2022-12-01T14:18:36.699Z,40.28
2022-12-01T14:21:05.526Z,46.50
2022-12-01T14:23:57.228Z,41.03
2022-12-01T14:26:24.491Z,39.65
2022-12-01T14:29:03.119Z,43.65
2022-12-01T14:31:52.573Z,35.35
2022-12-01T14:34:24.236Z,37.38
2022-12-01T14:36:57.006Z,42.08
2022-12-01T14:39:28.656Z,33.88
2022-12-01T14:42:13.298Z,37.08
2022-12-01T14:44:44.645Z,35.00
2022-12-01T14:47:11.098Z,33.65
2022-12-01T14:49:46.713Z,33.55
2022-12-01T14:52:28.487Z,35.95
2022-12-01T14:55:04.121Z,40.03
2022-12-01T14:57:36.851Z,39.13
2022-12-01T15:00:03.386Z,39.13
2022-12-01T15:02:29.947Z,37.30
2022-12-01T15:05:14.420Z,41.08
2022-12-01T15:07:42.442Z,38.30
2022-12-01T15:10:19.859Z,40.45
2022-12-01T15:12:46.483Z,41.92
2022-12-01T15:15:21.065Z,41.17
2022-12-01T15:17:50.896Z,49.67
2022-12-01T15:20:47.869Z,47.20
2022-12-01T15:23:15.556Z,46.13
2022-12-01T15:25:43.307Z,48.83
2022-12-01T15:28:09.681Z,47.15
2022-12-01T15:30:36.187Z,47.00
2022-12-01T15:33:02.798Z,49.35
2022-12-01T15:35:29.294Z,51.25
2022-12-01T15:37:55.972Z,48.40
2022-12-01T15:43:16.115Z,50.50
2022-12-01T15:45:46.079Z,45.10
2022-12-01T15:48:16.747Z,51.50
2022-12-01T15:50:46.552Z,47.97
2022-12-01T15:53:25.841Z,46.25
2022-12-01T15:55:58.599Z,47.83
2022-12-01T15:58:26.957Z,51.13
2022-12-01T16:00:59.552Z,48.78
2022-12-01T16:03:26.264Z,46.95
2022-12-01T16:05:52.980Z,49.05
2022-12-01T16:08:20.997Z,47.63
2022-12-01T16:11:07.351Z,43.10
2022-12-01T16:14:00.299Z,42.40
2022-12-01T16:16:37.436Z,47.72
2022-12-01T16:19:09.791Z,42.90
2022-12-01T16:21:50.390Z,44.95
2022-12-01T16:24:18.271Z,38.90
2022-12-01T16:26:48.852Z,41.35
2022-12-01T16:29:20.041Z,46.17
2022-12-01T16:32:12.633Z,41.22
2022-12-01T16:34:45.846Z,39.95
2022-12-01T16:37:14.512Z,43.47
2022-12-01T16:39:40.947Z,40.95
2022-12-01T16:42:10.689Z,42.70
2022-12-01T16:44:37.160Z,42.40
2022-12-01T16:47:03.584Z,40.42
2022-12-01T16:49:30.414Z,42.63
2022-12-01T16:51:57.524Z,42.22
2022-12-01T16:54:25.667Z,43.92
2022-12-01T16:56:52.129Z,43.83
2022-12-01T16:59:21.678Z,44.58
2022-12-01T17:01:48.189Z,50.88
2022-12-01T17:04:15.097Z,47.83
2022-12-01T17:06:41.722Z,48.67
2022-12-01T17:09:08.154Z,46.30
2022-12-01T17:11:34.693Z,45.80
2022-12-01T17:14:01.293Z,48.88
2022-12-01T17:16:27.733Z,51.92
2022-12-01T17:18:54.145Z,56.05
2022-12-01T17:21:20.611Z,51.72
2022-12-01T17:23:47.069Z,53.95
2022-12-01T17:26:14.970Z,56.67
2022-12-01T17:28:41.915Z,54.58
2022-12-01T17:31:09.042Z,53.40
2022-12-01T17:33:36.078Z,59.97
2022-12-01T17:36:04.490Z,51.10
2022-12-01T17:38:31.124Z,53.35
2022-12-01T17:41:09.542Z,53.83
2022-12-01T17:43:36.861Z,49.45
2022-12-01T17:46:04.376Z,52.50
2022-12-01T17:48:34.651Z,52.53
2022-12-01T17:51:01.096Z,53.67
2022-12-01T17:53:27.703Z,52.42
2022-12-01T17:55:54.180Z,52.55
2022-12-01T17:58:21.653Z,53.85
2022-12-01T18:00:50.007Z,53.65
2022-12-01T18:03:16.482Z,54.85
2022-12-01T18:05:43.093Z,51.58
2022-12-01T18:08:11.840Z,55.65
2022-12-01T18:10:38.351Z,52.70
2022-12-01T18:13:04.768Z,56.28
2022-12-01T18:15:34.688Z,57.63
2022-12-01T18:18:01.349Z,52.80
2022-12-01T18:20:27.837Z,58.15
2022-12-01T18:22:54.241Z,61.70
2022-12-01T18:25:20.682Z,60.42
2022-12-01T18:27:47.066Z,57.80
2022-12-01T18:30:13.863Z,56.22
2022-12-01T18:32:40.336Z,59.13
2022-12-01T18:35:06.898Z,55.58
2022-12-01T18:37:35.519Z,56.35
2022-12-01T18:40:01.906Z,63.38
2022-12-01T18:42:28.269Z,66.13
2022-12-01T18:44:54.669Z,58.53
2022-12-01T18:51:24.050Z,61.50
2022-12-01T18:53:54.726Z,62.90
2022-12-01T18:56:21.459Z,56.95
2022-12-01T18:58:48.096Z,59.75
2022-12-01T19:01:32.280Z,64.70
2022-12-01T19:03:59.418Z,63.40
2022-12-01T19:06:26.285Z,62.47
2022-12-01T19:08:53.448Z,63.70
2022-12-01T19:11:20.166Z,57.80
2022-12-01T19:13:46.791Z,59.63
2022-12-01T19:16:14.323Z,62.88
2022-12-01T19:18:40.854Z,62.25
2022-12-01T19:21:08.698Z,62.70
2022-12-01T19:23:35.095Z,68.80
2022-12-01T19:26:06.028Z,59.30
2022-12-01T19:28:36.107Z,56.47
2022-12-01T19:31:06.821Z,53.17
2022-12-01T19:33:33.879Z,55.38
2022-12-01T19:36:11.305Z,59.42
2022-12-01T19:38:38.358Z,59.50
2022-12-01T19:41:05.755Z,58.17
2022-12-01T19:43:36.254Z,67.57
2022-12-01T19:46:10.668Z,64.82
2022-12-01T19:48:37.452Z,61.60
2022-12-01T19:51:04.315Z,60.38
2022-12-01T19:53:34.374Z,61.33
2022-12-01T19:56:07.241Z,65.22
2022-12-01T19:58:34.092Z,65.85
2022-12-01T20:01:09.074Z,57.75
2022-12-01T20:03:38.366Z,58.97
2022-12-01T20:06:06.326Z,67.28
2022-12-01T20:08:35.884Z,57.67
2022-12-01T20:11:04.602Z,61.88
2022-12-01T20:13:32.708Z,64.45
2022-12-01T20:16:04.271Z,64.00
2022-12-01T20:18:36.565Z,59.38
2022-12-01T20:21:17.607Z,58.33
2022-12-01T20:23:45.369Z,65.95
2022-12-01T20:26:12.578Z,62.97
2022-12-01T20:28:40.372Z,60.70
2022-12-01T20:31:18.399Z,67.45
2022-12-01T20:33:48.155Z,59.47
2022-12-01T20:36:24.231Z,62.35
2022-12-01T20:38:53.412Z,61.85
2022-12-01T20:41:20.559Z,60.00
2022-12-01T20:43:50.170Z,59.90
2022-12-01T20:46:17.150Z,62.63
2022-12-01T20:48:44.394Z,68.00
2022-12-01T20:51:12.182Z,58.15
2022-12-01T20:53:39.034Z,63.05
2022-12-01T20:56:06.899Z,62.60
2022-12-01T20:58:37.703Z,68.55
2022-12-01T21:01:09.219Z,61.35
2022-12-01T21:03:39.640Z,63.00
2022-12-01T21:06:06.758Z,66.20
2022-12-01T21:08:33.426Z,63.33
2022-12-01T21:11:06.735Z,65.05
2022-12-01T21:13:39.535Z,66.85
2022-12-01T21:16:13.653Z,69.37
2022-12-01T21:19:15.851Z,65.90
2022-12-01T21:21:42.462Z,63.60
2022-12-01T21:24:12.123Z,62.88
2022-12-01T21:26:42.569Z,70.75
2022-12-01T21:29:37.492Z,62.35
2022-12-01T21:32:10.344Z,67.45
2022-12-01T21:34:39.739Z,62.35
2022-12-01T21:37:10.527Z,65.18
2022-12-01T21:39:39.506Z,69.50
2022-12-01T21:42:29.110Z,65.60
2022-12-01T21:44:56.149Z,70.18
2022-12-01T21:47:26.830Z,65.15
2022-12-01T21:49:57.017Z,67.63
2022-12-01T21:52:33.275Z,63.08
2022-12-01T21:55:15.144Z,65.93
2022-12-01T21:57:51.684Z,66.30
2022-12-01T22:00:20.962Z,78.03
2022-12-01T22:02:52.233Z,71.55
2022-12-01T22:05:25.925Z,71.85
2022-12-01T22:10:37.626Z,70.82
2022-12-01T22:13:08.281Z,71.13
2022-12-01T22:15:42.335Z,72.65
2022-12-01T22:18:17.688Z,71.13
2022-12-01T22:20:44.094Z,71.38
2022-12-01T22:23:12.268Z,68.45
2022-12-01T22:25:40.107Z,66.45
2022-12-01T22:28:17.409Z,70.10
2022-12-01T22:30:44.492Z,71.22
2022-12-01T22:33:14.848Z,81.25
2022-12-01T22:35:45.787Z,70.95
2022-12-01T22:38:30.734Z,67.22
2022-12-01T22:40:58.240Z,65.75
2022-12-01T22:43:26.143Z,69.32
2022-12-01T22:45:52.500Z,68.78
2022-12-01T22:48:28.140Z,71.53
2022-12-01T22:50:54.750Z,71.47
2022-12-01T22:53:30.910Z,80.60
2022-12-01T22:55:59.980Z,68.25
2022-12-01T22:58:39.579Z,61.38
2022-12-01T23:01:18.025Z,69.15
2022-12-01T23:03:44.520Z,72.93
2022-12-01T23:06:30.901Z,67.68
2022-12-01T23:08:57.329Z,74.00
2022-12-01T23:11:23.698Z,65.10
2022-12-01T23:13:50.112Z,68.90
2022-12-01T23:16:16.567Z,65.57
2022-12-01T23:18:45.288Z,61.83
2022-12-01T23:21:11.692Z,65.13
2022-12-01T23:23:38.177Z,66.88
2022-12-01T23:26:06.697Z,68.35
2022-12-01T23:28:34.789Z,64.97
2022-12-01T23:31:01.319Z,68.15
2022-12-01T23:33:32.174Z,65.60
2022-12-01T23:35:58.555Z,66.80
2022-12-01T23:38:28.924Z,67.88
2022-12-01T23:40:57.045Z,71.82
2022-12-01T23:43:25.293Z,71.03
2022-12-01T23:45:58.635Z,71.03
2022-12-01T23:48:27.085Z,66.82
2022-12-01T23:50:54.393Z,69.05
2022-12-01T23:53:31.613Z,78.43
2022-12-01T23:56:07.333Z,67.03
2022-12-01T23:58:33.988Z,71.35
